Time;durP1;ratioP1;P1;durP2;ratioP2;P2;SDS_P1;SDS_P2;PMS_P1;PMS_P2;Temp;Humidity;BMP_temperature;BMP_pressure;BME280_temperature;BME280_humidity;BME280_pressure;Samples;Min_cycle;Max_cycle;Signal;HPM_P1;HPM_P2
2022/04/06 00:01:47;;;;;;;23.35;8.40;;;;;;;8.69;90.48;100429.31;5072043;28;20060;-61
2022/04/06 00:04:12;;;;;;;23.40;7.72;;;;;;;8.68;90.46;100422.34;5071664;28;20032;-61
2022/04/06 00:06:38;;;;;;;26.40;7.72;;;;;;;8.67;90.48;100420.63;5071817;28;20040;-62
2022/04/06 00:09:03;;;;;;;20.25;8.07;;;;;;;8.66;90.51;100424.22;5071805;28;20021;-60
2022/04/06 00:11:29;;;;;;;23.15;8.10;;;;;;;8.65;90.48;100415.47;5071588;28;20043;-61
2022/04/06 00:13:55;;;;;;;24.45;8.13;;;;;;;8.64;90.57;100412.94;5071738;28;20048;-61
2022/04/06 00:16:20;;;;;;;23.98;7.50;;;;;;;8.64;90.56;100413.78;5071560;28;20082;-61
2022/04/06 00:18:45;;;;;;;23.88;8.07;;;;;;;8.63;90.67;100420.03;5071593;28;20043;-61
2022/04/06 00:21:11;;;;;;;25.25;8.57;;;;;;;8.62;90.53;100406.91;5071825;28;20031;-61
2022/04/06 00:23:37;;;;;;;23.80;8.75;;;;;;;8.61;90.56;100411.38;5071448;28;20126;-61
2022/04/06 00:26:02;;;;;;;27.98;8.65;;;;;;;8.60;90.29;100420.25;5071170;28;20044;-61
2022/04/06 00:28:28;;;;;;;26.10;8.32;;;;;;;8.60;90.27;100420.25;5071423;28;20089;-60
2022/04/06 00:30:53;;;;;;;20.80;7.35;;;;;;;8.58;90.50;100406.31;5071264;28;20033;-61
2022/04/06 00:33:18;;;;;;;20.00;6.95;;;;;;;8.58;90.38;100395.72;5071357;28;20099;-61
2022/04/06 00:35:43;;;;;;;22.40;8.02;;;;;;;8.58;90.45;100401.00;5071297;28;20552;-62
2022/04/06 00:38:09;;;;;;;21.45;7.18;;;;;;;8.57;90.32;100403.75;5071344;28;20573;-61
2022/04/06 00:40:35;;;;;;;23.65;7.30;;;;;;;8.58;90.60;100405.47;5071303;28;20032;-62
2022/04/06 00:43:06;;;;;;;25.92;7.38;;;;;;;8.55;90.42;100413.63;5071302;28;20530;-62
2022/04/06 00:45:31;;;;;;;24.00;7.75;;;;;;;8.55;90.31;100403.88;5083583;28;20035;-61
2022/04/06 00:47:56;;;;;;;24.23;7.45;;;;;;;8.53;90.14;100395.22;5082139;28;20475;-61
2022/04/06 00:50:23;;;;;;;23.85;7.63;;;;;;;8.53;90.17;100395.22;5071084;28;20102;-62
2022/04/06 00:52:55;;;;;;;21.55;7.05;;;;;;;8.49;90.05;100391.09;5071009;28;20064;-61
2022/04/06 00:55:25;;;;;;;18.52;7.10;;;;;;;8.51;90.28;100397.16;5070240;28;20115;-61
2022/04/06 00:57:51;;;;;;;19.85;7.07;;;;;;;8.51;90.17;100399.78;5070631;28;20035;-60
2022/04/06 01:00:16;;;;;;;24.15;6.80;;;;;;;8.49;90.14;100388.44;5070661;28;20052;-61
2022/04/06 01:02:42;;;;;;;18.20;6.63;;;;;;;8.48;89.78;100386.78;5070554;28;20033;-61
2022/04/06 01:05:08;;;;;;;20.20;6.85;;;;;;;8.47;90.17;100388.56;5070783;28;20405;-61
2022/04/06 01:07:34;;;;;;;23.73;7.63;;;;;;;8.48;89.91;100384.13;5070744;28;20036;-61
2022/04/06 01:10:00;;;;;;;21.20;6.50;;;;;;;8.47;90.09;100374.50;5070510;28;20067;-60
2022/04/06 01:12:27;;;;;;;19.52;6.65;;;;;;;8.46;90.16;100383.38;5070538;28;20167;-61
2022/04/06 01:14:54;;;;;;;19.83;6.95;;;;;;;8.45;89.81;100376.41;5070631;28;20119;-61
2022/04/06 01:17:19;;;;;;;18.67;6.22;;;;;;;8.44;89.65;100377.38;5070756;28;20021;-61
2022/04/06 01:19:47;;;;;;;21.85;5.93;;;;;;;8.45;89.76;100371.13;5070598;28;20033;-61
2022/04/06 01:22:14;;;;;;;23.98;6.72;;;;;;;8.44;89.57;100374.72;5070698;28;20063;-61
2022/04/06 01:24:41;;;;;;;17.55;5.90;;;;;;;8.44;89.59;100372.94;5070642;28;20025;-61
2022/04/06 01:27:07;;;;;;;25.75;6.40;;;;;;;8.44;89.31;100372.94;5070350;28;20052;-61
2022/04/06 01:29:32;;;;;;;18.27;5.93;;;;;;;8.43;89.62;100379.19;5070185;28;20044;-61
2022/04/06 01:32:12;;;;;;;20.13;5.75;;;;;;;8.44;89.58;100365.00;5070537;28;20093;-61
2022/04/06 01:34:41;;;;;;;21.35;6.80;;;;;;;8.42;89.56;100366.03;5070316;28;20025;-61
2022/04/06 01:37:09;;;;;;;17.75;5.95;;;;;;;8.42;89.31;100374.81;5070678;28;20489;-61
2022/04/06 01:39:35;;;;;;;24.23;5.45;;;;;;;8.41;89.10;100367.84;5070296;28;20025;-61
2022/04/06 01:42:01;;;;;;;17.27;6.00;;;;;;;8.40;89.00;100362.66;5070120;28;20505;-61
2022/04/06 01:44:27;;;;;;;21.55;5.55;;;;;;;8.41;89.27;100367.84;5073531;28;20496;-61
2022/04/06 01:46:52;;;;;;;18.08;5.55;;;;;;;8.40;89.21;100370.59;5090444;28;20028;-61
2022/04/06 01:52:14;;;;;;;18.90;5.22;;;;;;;8.40;88.93;100362.66;5079661;28;20098;-61
2022/04/06 01:54:41;;;;;;;22.73;5.72;;;;;;;8.36;88.77;100366.47;5070198;28;20039;-61
2022/04/06 01:57:07;;;;;;;23.95;5.68;;;;;;;8.37;88.70;100354.94;5070344;28;20034;-61
2022/04/06 01:59:32;;;;;;;14.38;4.85;;;;;;;8.38;88.59;100367.22;5070042;28;20423;-61
2022/04/06 02:01:57;;;;;;;18.85;5.47;;;;;;;8.36;88.54;100364.69;5069956;28;20103;-61
2022/04/06 02:04:22;;;;;;;14.18;4.63;;;;;;;8.36;88.04;100358.53;5070130;28;20029;-61
2022/04/06 02:06:48;;;;;;;17.92;5.15;;;;;;;8.36;88.24;100362.06;5073633;28;20036;-61
2022/04/06 02:09:13;;;;;;;24.65;5.68;;;;;;;8.35;88.23;100365.66;5073930;28;20054;-61
2022/04/06 02:11:39;;;;;;;18.08;5.10;;;;;;;8.34;87.97;100350.72;5073820;28;20494;-61
2022/04/06 02:14:05;;;;;;;15.70;4.63;;;;;;;8.32;87.59;100352.66;5073879;28;20035;-61
2022/04/06 02:16:32;;;;;;;17.50;5.03;;;;;;;8.31;87.63;100346.53;5073715;28;20032;-61
2022/04/06 02:18:58;;;;;;;18.92;5.00;;;;;;;8.31;87.58;100348.28;5073741;28;20105;-61
2022/04/06 02:21:23;;;;;;;19.98;5.22;;;;;;;8.31;87.57;100345.66;5073085;28;20070;-61
2022/04/06 02:23:48;;;;;;;15.93;4.93;;;;;;;8.28;87.61;100337.97;5071531;28;20020;-61
2022/04/06 02:26:14;;;;;;;17.27;4.72;;;;;;;8.28;87.45;100345.91;5133862;22;20062;-86
2022/04/06 02:28:39;;;;;;;19.30;5.45;;;;;;;8.26;87.42;100337.22;5131688;27;20046;-86
2022/04/06 02:31:05;;;;;;;23.73;5.97;;;;;;;8.25;87.39;100335.56;5139826;27;20429;-86
2022/04/06 02:33:30;;;;;;;18.92;4.88;;;;;;;8.23;87.10;100335.66;5127214;27;20020;-87
2022/04/06 02:35:55;;;;;;;17.48;4.43;;;;;;;8.24;86.59;100339.97;5127535;27;20063;-86
2022/04/06 02:38:21;;;;;;;19.40;4.82;;;;;;;8.22;86.77;100328.69;5125737;28;20054;-87
2022/04/06 02:40:46;;;;;;;16.33;4.70;;;;;;;8.22;86.50;100327.84;5092864;28;20052;-86
2022/04/06 02:43:12;;;;;;;17.40;4.32;;;;;;;8.17;86.69;100320.25;5130691;27;20020;-87
2022/04/06 02:45:38;;;;;;;17.88;4.57;;;;;;;8.17;86.72;100325.53;5103562;28;20435;-87
2022/04/06 02:48:03;;;;;;;15.35;4.13;;;;;;;8.17;86.42;100328.19;5120759;28;20120;-87
2022/04/06 02:50:29;;;;;;;16.80;4.60;;;;;;;8.18;86.17;100321.94;5123414;28;20024;-86
2022/04/06 02:52:54;;;;;;;19.23;4.70;;;;;;;8.15;86.27;100320.34;5116820;28;20104;-86
2022/04/06 02:55:19;;;;;;;18.30;4.22;;;;;;;8.12;86.17;100319.75;5114482;28;20059;-86
2022/04/06 02:57:45;;;;;;;20.15;4.57;;;;;;;8.08;86.38;100307.72;5096212;28;20019;-86
2022/04/06 03:00:13;;;;;;;14.43;4.53;;;;;;;8.07;86.00;100311.31;5097056;28;20028;-86
2022/04/06 03:02:38;;;;;;;17.90;4.70;;;;;;;8.06;85.78;100312.25;5094922;28;20032;-86
2022/04/06 03:05:04;;;;;;;17.38;4.18;;;;;;;8.06;85.90;100309.63;5094509;28;20468;-86
2022/04/06 03:07:29;;;;;;;18.08;4.85;;;;;;;8.04;85.62;100306.25;5075962;28;20094;-86
2022/04/06 03:09:54;;;;;;;21.15;4.55;;;;;;;8.02;85.51;100306.34;5093969;28;20035;-86
2022/04/06 03:12:19;;;;;;;15.10;4.10;;;;;;;8.00;85.16;100302.16;5094253;28;20103;-86
2022/04/06 03:14:45;;;;;;;16.10;4.00;;;;;;;8.00;85.17;100302.16;5095138;28;20054;-86
2022/04/06 03:17:11;;;;;;;15.63;4.10;;;;;;;7.99;85.18;100306.59;5134120;27;20031;-86
2022/04/06 03:19:36;;;;;;;16.15;4.50;;;;;;;8.00;84.82;100291.59;5130452;27;20474;-86
2022/04/06 03:22:02;;;;;;;15.32;3.65;;;;;;;7.96;84.43;100297.09;5114336;28;20076;-86
2022/04/06 03:24:28;;;;;;;17.50;4.25;;;;;;;7.95;85.12;100295.41;5096201;28;20076;-87
2022/04/06 03:26:53;;;;;;;15.32;3.83;;;;;;;7.94;84.53;100287.56;5079625;28;20049;-87
2022/04/06 03:29:18;;;;;;;14.73;4.40;;;;;;;7.95;84.78;100292.75;5072137;28;20043;-86
2022/04/06 03:31:48;;;;;;;10.57;3.20;;;;;;;7.94;84.38;100282.28;5062219;28;20048;-86
2022/04/06 03:34:13;;;;;;;;;;;;;;;8.00;84.96;100281.00;5058639;28;20490;-87
2022/04/06 03:36:38;;;;;;;13.65;3.28;;;;;;;7.91;84.01;100274.56;5073636;28;20003;-86
2022/04/06 03:39:04;;;;;;;17.40;3.90;;;;;;;7.91;84.67;100264.00;5073269;28;20036;-87
2022/04/06 03:41:29;;;;;;;16.27;3.55;;;;;;;7.91;84.14;100274.56;5071783;28;20027;-87
2022/04/06 03:43:54;;;;;;;13.35;3.88;;;;;;;7.89;83.74;100263.28;5073555;28;20028;-87
2022/04/06 03:46:20;;;;;;;12.52;3.42;;;;;;;7.87;83.79;100258.09;5073469;28;20086;-87
2022/04/06 03:48:45;;;;;;;13.38;3.63;;;;;;;7.91;83.03;100264.00;5073594;28;20021;-86
2022/04/06 03:51:10;;;;;;;14.75;3.55;;;;;;;7.90;83.17;100265.81;5092453;28;20442;-87
2022/04/06 03:53:35;;;;;;;17.17;3.60;;;;;;;7.87;83.15;100262.56;5088606;28;20031;-87
2022/04/06 03:56:01;;;;;;;13.65;4.03;;;;;;;7.85;83.40;100260.03;5068412;28;20367;-88
2022/04/06 03:58:26;;;;;;;12.88;3.63;;;;;;;7.87;83.18;100266.03;5053991;28;20032;-87
2022/04/06 04:00:52;;;;;;;14.52;3.70;;;;;;;7.83;82.96;100261.94;5052970;28;20480;-87
2022/04/06 04:03:17;;;;;;;12.52;3.10;;;;;;;7.86;83.19;100266.16;5052883;28;20021;-87
2022/04/06 04:05:42;;;;;;;12.13;3.35;;;;;;;7.83;82.58;100253.16;5052773;28;20040;-87
2022/04/06 04:08:08;;;;;;;13.85;4.03;;;;;;;7.83;83.12;100261.94;5068809;28;20035;-88
2022/04/06 04:10:33;;;;;;;10.55;3.00;;;;;;;7.83;82.63;100255.78;5052618;28;20052;-87
2022/04/06 04:12:58;;;;;;;13.18;3.20;;;;;;;7.82;82.75;100254.97;5063824;28;20387;-87
2022/04/06 04:15:24;;;;;;;13.07;3.70;;;;;;;7.84;82.76;100257.50;5071486;28;20025;-88
2022/04/06 04:17:49;;;;;;;12.80;4.00;;;;;;;7.84;82.95;100262.78;5072721;28;20035;-87
2022/04/06 04:20:14;;;;;;;13.35;3.25;;;;;;;7.82;82.97;100252.31;5072621;28;20056;-87
2022/04/06 04:22:40;;;;;;;15.32;3.63;;;;;;;7.84;83.07;100260.97;5072212;28;20028;-87
2022/04/06 04:25:06;;;;;;;13.55;3.58;;;;;;;7.83;83.55;100248.72;5053022;28;20036;-87
2022/04/06 04:27:31;;;;;;;20.02;4.20;;;;;;;7.87;83.95;100238.75;5083378;28;20056;-87
2022/04/06 04:29:58;;;;;;;19.10;4.88;;;;;;;7.86;84.32;100253.78;5072343;28;20028;-87
2022/04/06 04:32:23;;;;;;;18.33;4.38;;;;;;;7.85;84.64;100243.31;5072257;28;20074;-87
2022/04/06 04:34:49;;;;;;;18.52;4.57;;;;;;;7.88;84.96;100245.75;5072389;28;20479;-87
2022/04/06 04:37:14;;;;;;;22.48;5.18;;;;;;;7.90;85.04;100243.81;5091613;28;20032;-87
2022/04/06 04:39:40;;;;;;;18.50;5.10;;;;;;;7.90;85.17;100238.53;5092820;28;20020;-87
2022/04/06 04:42:06;;;;;;;17.33;4.97;;;;;;;7.90;85.42;100241.19;5092404;28;20034;-88
2022/04/06 04:44:31;;;;;;;17.30;5.03;;;;;;;7.92;85.38;100249.84;5092750;28;20027;-88
2022/04/06 04:46:57;;;;;;;19.17;5.60;;;;;;;7.91;85.55;100234.91;5092260;28;20032;-87
2022/04/06 04:49:22;;;;;;;20.50;5.63;;;;;;;7.93;85.76;100239.16;5095916;28;20086;-89
2022/04/06 04:51:47;;;;;;;22.55;6.07;;;;;;;7.92;85.41;100229.50;5112855;28;20098;-88
2022/04/06 04:54:13;;;;;;;18.50;5.53;;;;;;;7.92;85.65;100229.50;5095849;28;20024;-88
2022/04/06 04:56:41;;;;;;;22.90;6.00;;;;;;;7.94;85.83;100229.41;5092192;28;20028;-88
2022/04/06 04:59:07;;;;;;;19.17;5.90;;;;;;;7.96;85.69;100227.50;5084374;28;20525;-87
2022/04/06 05:01:32;;;;;;;22.45;7.05;;;;;;;7.95;85.81;100223.16;5071678;28;20060;-87
2022/04/06 05:03:57;;;;;;;16.38;6.30;;;;;;;7.94;85.62;100224.09;5071577;28;20021;-87
2022/04/06 05:06:22;;;;;;;23.38;7.07;;;;;;;7.96;85.96;100214.28;5071695;28;20033;-87
2022/04/06 05:08:48;;;;;;;22.75;6.25;;;;;;;7.94;85.96;100224.97;5086294;28;20031;-88
2022/04/06 05:11:15;;;;;;;17.50;6.03;;;;;;;7.94;85.76;100224.97;5092241;28;20451;-87
2022/04/06 05:13:41;;;;;;;18.25;6.22;;;;;;;7.95;85.78;100212.59;5091901;28;20081;-87
2022/04/06 05:16:06;;;;;;;21.02;5.82;;;;;;;7.94;85.60;100213.53;5093303;28;20397;-87
2022/04/06 05:18:32;;;;;;;18.33;5.50;;;;;;;7.95;85.51;100221.34;5094000;28;20020;-87
2022/04/06 05:20:57;;;;;;;17.00;5.78;;;;;;;7.95;85.00;100213.41;5095537;28;20099;-88
2022/04/06 05:23:23;;;;;;;19.42;5.53;;;;;;;7.97;85.07;100208.00;5117877;28;20016;-87
2022/04/06 05:25:48;;;;;;;17.92;5.68;;;;;;;7.95;84.90;100205.50;5108570;28;20126;-87
2022/04/06 05:28:15;;;;;;;17.92;5.30;;;;;;;7.96;85.03;100209.00;5076534;28;20031;-87
2022/04/06 05:30:41;;;;;;;17.45;5.13;;;;;;;7.97;84.79;100208.00;5099592;28;20024;-87
2022/04/06 05:33:07;;;;;;;17.95;5.30;;;;;;;8.00;84.64;100220.19;5093883;28;20111;-87
2022/04/06 05:35:33;;;;;;;15.15;4.43;;;;;;;7.96;84.58;100209.81;5093908;28;20435;-88
2022/04/06 05:37:58;;;;;;;18.42;5.30;;;;;;;7.97;84.74;100206.22;5093644;28;20024;-87
2022/04/06 05:40:24;;;;;;;14.00;4.85;;;;;;;7.99;84.79;100207.91;5092545;28;20068;-88
2022/04/06 05:42:50;;;;;;;15.88;4.82;;;;;;;8.00;85.00;100213.06;5075117;28;20028;-87
2022/04/06 05:45:15;;;;;;;16.27;4.90;;;;;;;7.97;84.80;100208.00;5093204;28;20032;-87
2022/04/06 05:47:42;;;;;;;11.95;4.30;;;;;;;7.99;84.16;100208.75;5075359;28;20028;-87
2022/04/06 05:50:09;;;;;;;14.93;4.35;;;;;;;8.00;83.83;100206.97;5091155;28;20032;-87
2022/04/06 05:52:34;;;;;;;16.92;4.18;;;;;;;8.00;83.66;100209.59;5092723;28;20012;-88
2022/04/06 05:55:00;;;;;;;20.88;4.15;;;;;;;8.01;83.75;100209.50;5093020;28;20022;-87
2022/04/06 05:57:25;;;;;;;20.30;4.00;;;;;;;8.02;82.95;100194.44;5099479;28;20028;-87
2022/04/06 05:59:50;;;;;;;11.52;3.78;;;;;;;8.01;82.75;100201.56;5103229;28;20031;-88
2022/04/06 06:02:16;;;;;;;14.27;3.80;;;;;;;8.02;82.85;100202.38;5097602;28;20040;-87
2022/04/06 06:04:41;;;;;;;13.88;3.40;;;;;;;8.04;82.08;100209.22;5102104;28;20020;-88
2022/04/06 06:07:07;;;;;;;11.52;2.95;;;;;;;8.04;81.06;100208.41;5080205;28;20035;-88
2022/04/06 06:09:33;;;;;;;10.32;3.30;;;;;;;8.06;80.64;100201.19;5102835;28;20024;-89
2022/04/06 06:11:59;;;;;;;9.95;2.65;;;;;;;8.06;79.87;100201.19;5107661;28;20029;-88
2022/04/06 06:14:25;;;;;;;13.82;3.40;;;;;;;8.08;79.90;100215.16;5107011;28;20019;-88
2022/04/06 06:16:51;;;;;;;12.48;3.10;;;;;;;8.08;79.29;100202.75;5099584;28;20032;-85
2022/04/06 06:19:17;;;;;;;8.93;2.50;;;;;;;8.12;76.76;100213.94;5100102;28;20032;-83
2022/04/06 06:21:43;;;;;;;13.02;2.92;;;;;;;8.13;76.19;100213.81;5097818;28;20051;-84
2022/04/06 06:24:08;;;;;;;9.05;2.30;;;;;;;8.15;76.07;100217.19;5099153;28;20028;-86
2022/04/06 06:26:35;;;;;;;7.50;2.33;;;;;;;8.16;75.39;100210.13;5098029;28;20044;-86
2022/04/06 06:29:00;;;;;;;11.15;2.67;;;;;;;8.19;75.35;100207.22;5097013;28;20032;-84
2022/04/06 06:31:28;;;;;;;7.75;2.35;;;;;;;8.19;75.93;100212.50;5100543;28;20032;-83
2022/04/06 06:33:53;;;;;;;7.65;2.22;;;;;;;8.22;75.89;100208.78;5067077;28;20032;-84
2022/04/06 06:36:19;;;;;;;8.20;2.30;;;;;;;8.21;74.61;100207.97;5060712;28;20032;-83
2022/04/06 06:38:44;;;;;;;9.60;2.45;;;;;;;8.24;73.99;100209.50;5076463;28;20029;-83
2022/04/06 06:43:58;;;;;;;6.80;2.08;;;;;;;8.23;74.54;100190.16;5067025;28;20523;-84
2022/04/06 06:46:24;;;;;;;7.10;2.08;;;;;;;8.23;74.53;100195.44;5075037;28;20067;-84
2022/04/06 06:48:51;;;;;;;8.75;2.40;;;;;;;8.25;74.40;100188.22;5077048;28;20645;-83
2022/04/06 06:51:17;;;;;;;5.75;2.22;;;;;;;8.28;73.27;100200.38;5074950;28;20162;-84
2022/04/06 06:53:43;;;;;;;8.55;2.08;;;;;;;8.30;73.02;100186.06;5079890;28;20034;-84
2022/04/06 06:56:10;;;;;;;10.15;2.50;;;;;;;8.31;73.54;100200.13;5079835;28;20344;-84
2022/04/06 06:58:36;;;;;;;8.70;2.30;;;;;;;8.34;72.13;100187.53;5078355;28;20028;-84
2022/04/06 07:01:02;;;;;;;10.25;2.47;;;;;;;8.39;72.13;100186.31;5079032;28;20439;-83
2022/04/06 07:03:27;;;;;;;5.20;1.90;;;;;;;8.43;72.22;100193.09;5079960;28;20024;-84
2022/04/06 07:05:53;;;;;;;11.55;2.22;;;;;;;8.42;72.29;100189.56;5095220;28;20043;-84
2022/04/06 07:08:19;;;;;;;6.28;2.17;;;;;;;8.45;72.54;100193.81;5075868;28;20378;-84
2022/04/06 07:10:45;;;;;;;12.75;2.58;;;;;;;8.46;72.68;100206.06;5078875;28;20041;-84
2022/04/06 07:13:15;;;;;;;9.00;2.42;;;;;;;8.45;72.99;100196.47;5067011;28;20387;-84
2022/04/06 07:15:41;;;;;;;8.25;2.47;;;;;;;8.46;73.76;100192.84;5072664;28;20028;-84
2022/04/06 07:18:08;;;;;;;11.38;3.17;;;;;;;8.46;74.56;100196.34;5080161;28;20111;-84
2022/04/06 07:20:37;;;;;;;8.68;2.47;;;;;;;8.46;75.58;100195.47;5068379;28;20020;-84
2022/04/06 07:23:06;;;;;;;12.75;3.20;;;;;;;8.47;76.36;100192.72;5078921;28;20101;-84
2022/04/06 07:25:32;;;;;;;10.45;3.05;;;;;;;8.46;77.14;100187.53;5072821;28;20066;-83
2022/04/06 07:27:58;;;;;;;16.08;3.80;;;;;;;8.47;77.56;100183.94;5064836;28;20040;-84
2022/04/06 07:30:23;;;;;;;12.07;4.25;;;;;;;8.44;78.25;100177.09;5080344;28;20024;-85
2022/04/06 07:32:49;;;;;;;13.63;3.38;;;;;;;8.47;78.94;100179.47;5070942;28;20044;-84
2022/04/06 07:35:16;;;;;;;16.88;4.32;;;;;;;8.49;78.75;100172.28;5081204;28;20340;-84
2022/04/06 07:37:50;;;;;;;14.10;4.03;;;;;;;8.49;79.03;100164.34;5066863;28;20075;-85
2022/04/06 07:40:21;;;;;;;10.45;3.60;;;;;;;8.51;79.32;100172.16;5069857;28;20020;-84
2022/04/06 07:42:51;;;;;;;10.45;4.38;;;;;;;8.51;79.31;100167.72;5091797;28;20095;-84
2022/04/06 07:45:18;;;;;;;13.18;4.22;;;;;;;8.55;79.18;100163.00;5101665;28;20038;-83
2022/04/06 07:47:48;;;;;;;11.43;4.25;;;;;;;8.59;79.29;100160.97;5105354;28;20135;-83
2022/04/06 07:50:14;;;;;;;12.25;4.00;;;;;;;8.59;79.19;100158.31;5079477;28;20463;-83
2022/04/06 07:52:42;;;;;;;15.88;3.70;;;;;;;8.62;79.38;100153.59;5079236;28;20089;-83
2022/04/06 07:55:09;;;;;;;10.23;3.88;;;;;;;8.64;79.48;100138.47;5077586;28;20024;-84
2022/04/06 07:57:35;;;;;;;14.65;4.30;;;;;;;8.75;78.87;100136.75;5095403;28;20127;-83
2022/04/06 08:00:11;;;;;;;14.65;3.40;;;;;;;8.83;79.27;100135.16;5095120;28;20031;-82
2022/04/06 08:02:36;;;;;;;9.27;3.38;;;;;;;8.90;78.53;100143.47;5095071;28;20032;-84
2022/04/06 08:05:04;;;;;;;10.85;3.75;;;;;;;8.97;78.03;100144.63;5079452;28;20024;-83
2022/04/06 08:07:30;;;;;;;11.30;3.33;;;;;;;9.00;78.04;100141.75;5094487;28;20028;-82
2022/04/06 08:10:01;;;;;;;13.25;3.70;;;;;;;9.04;78.01;100139.69;5109190;28;20031;-83
2022/04/06 08:12:26;;;;;;;10.95;3.50;;;;;;;9.08;77.66;100138.47;5114854;28;20519;-83
2022/04/06 08:14:52;;;;;;;10.27;3.88;;;;;;;9.10;77.66;100147.13;5119265;28;20079;-83
2022/04/06 08:17:17;;;;;;;7.05;3.42;;;;;;;9.13;77.48;100143.41;5129806;28;20016;-82
2022/04/06 08:19:42;;;;;;;13.52;3.45;;;;;;;9.13;76.50;100148.72;5132488;27;20062;-82
2022/04/06 08:22:07;;;;;;;11.80;3.35;;;;;;;9.11;76.66;100138.25;5112212;28;20371;-83
2022/04/06 08:24:33;;;;;;;8.70;2.97;;;;;;;9.13;77.06;100151.38;5101438;28;20034;-83
2022/04/06 08:26:58;;;;;;;12.50;3.30;;;;;;;9.12;76.86;100152.31;5101313;28;20112;-83
2022/04/06 08:29:25;;;;;;;11.63;2.92;;;;;;;9.10;76.73;100152.44;5076880;28;20080;-82
2022/04/06 08:31:50;;;;;;;9.23;2.80;;;;;;;9.11;76.64;100147.97;5077569;28;20024;-83
2022/04/06 08:34:15;;;;;;;9.10;2.90;;;;;;;9.10;77.07;100151.59;5095730;28;20038;-82
2022/04/06 08:36:43;;;;;;;11.60;3.28;;;;;;;9.08;76.68;100147.25;5114283;28;20023;-82
2022/04/06 08:39:09;;;;;;;10.35;2.67;;;;;;;9.06;76.52;100146.56;5114767;28;20035;-83
2022/04/06 08:41:34;;;;;;;8.38;3.13;;;;;;;9.05;77.04;100142.22;5113317;28;20032;-83
2022/04/06 08:44:01;;;;;;;11.27;3.10;;;;;;;9.08;76.67;100151.72;5099635;28;20383;-83
2022/04/06 08:46:31;;;;;;;9.48;3.08;;;;;;;9.07;77.02;100144.72;5092195;28;20470;-82
2022/04/06 08:48:57;;;;;;;9.93;3.03;;;;;;;9.11;77.54;100137.38;5093129;28;20513;-83
2022/04/06 08:51:23;;;;;;;9.50;3.20;;;;;;;9.13;76.91;100132.81;5093658;28;20024;-83
2022/04/06 08:53:49;;;;;;;10.95;3.00;;;;;;;9.16;77.00;100143.13;5091701;28;20403;-82
2022/04/06 08:56:15;;;;;;;12.52;3.33;;;;;;;9.17;76.61;100136.88;5086999;28;20032;-83
2022/04/06 08:58:43;;;;;;;13.00;3.30;;;;;;;9.20;77.06;100134.00;5084114;28;20027;-82
2022/04/06 09:01:09;;;;;;;10.77;3.33;;;;;;;9.23;77.70;100128.44;5113421;28;20501;-82
2022/04/06 09:03:35;;;;;;;8.85;2.97;;;;;;;9.24;76.91;100127.44;5113989;28;20506;-83
2022/04/06 09:06:05;;;;;;;12.85;3.00;;;;;;;9.27;77.12;100143.09;5113194;28;20103;-82
2022/04/06 09:08:43;;;;;;;8.57;2.97;;;;;;;9.29;77.73;100137.69;5113063;28;20070;-83
2022/04/06 09:11:10;;;;;;;10.20;3.25;;;;;;;9.24;78.10;100130.97;5112912;28;20024;-82
2022/04/06 09:13:37;;;;;;;9.88;3.72;;;;;;;9.27;77.85;100132.50;5113451;28;20023;-83
2022/04/06 09:16:04;;;;;;;12.35;3.30;;;;;;;9.29;78.44;100129.72;5063692;28;20020;-82
2022/04/06 09:18:38;;;;;;;11.05;2.75;;;;;;;9.30;77.77;100126.94;5079430;28;20020;-82
2022/04/06 09:21:04;;;;;;;17.48;3.72;;;;;;;9.32;77.95;100142.72;5086238;28;20033;-83
2022/04/06 09:23:31;;;;;;;10.90;3.10;;;;;;;9.34;78.37;100132.84;5076582;28;20035;-82
2022/04/06 09:26:03;;;;;;;11.43;3.20;;;;;;;9.35;78.60;100130.06;5082444;28;20094;-82
2022/04/06 09:28:29;;;;;;;11.95;3.20;;;;;;;9.36;78.05;100130.88;5064578;28;20031;-82
2022/04/06 09:30:54;;;;;;;9.27;3.38;;;;;;;9.36;77.86;100129.09;5090099;28;20024;-82
2022/04/06 09:33:20;;;;;;;11.10;3.28;;;;;;;9.36;77.65;100122.94;5092821;28;20038;-82
2022/04/06 09:35:46;;;;;;;10.90;3.60;;;;;;;9.38;78.24;100127.16;5086663;28;20036;-82
2022/04/06 09:38:20;;;;;;;11.75;3.10;;;;;;;9.39;77.61;100130.63;5092554;28;20054;-84
2022/04/06 09:40:45;;;;;;;10.80;3.15;;;;;;;9.40;77.56;100129.69;5094079;28;20209;-87
2022/04/06 09:43:24;;;;;;;11.85;3.05;;;;;;;9.42;78.28;100133.88;5090313;28;20106;-86
2022/04/06 09:48:51;;;;;;;12.32;3.72;;;;;;;9.46;77.90;100123.88;5077070;28;20070;-85
2022/04/06 09:51:16;;;;;;;8.35;3.20;;;;;;;9.43;77.80;100126.78;5074577;28;20028;-86
2022/04/06 09:53:42;;;;;;;9.98;3.13;;;;;;;9.42;78.24;100125.91;5081914;28;20028;-86
2022/04/06 09:56:08;;;;;;;6.93;3.35;;;;;;;9.45;78.89;100119.53;5073713;28;20503;-87
2022/04/06 09:58:33;;;;;;;7.30;3.33;;;;;;;9.48;78.92;100124.59;5091419;28;20028;-85
2022/04/06 10:00:59;;;;;;;10.45;2.95;;;;;;;9.52;78.20;100111.91;5058901;28;20043;-83
2022/04/06 10:03:25;;;;;;;9.43;3.03;;;;;;;9.54;77.92;100112.63;5077478;28;20031;-83
2022/04/06 10:05:52;;;;;;;13.57;3.28;;;;;;;9.55;79.20;100127.56;5091898;28;20028;-83
2022/04/06 10:08:18;;;;;;;8.70;3.10;;;;;;;9.55;79.88;100114.31;5091464;28;20490;-83
2022/04/06 10:10:46;;;;;;;7.90;3.03;;;;;;;9.55;80.41;100109.00;5099742;28;20040;-83
2022/04/06 10:13:11;;;;;;;8.82;3.03;;;;;;;9.58;78.96;100109.59;5094889;28;20036;-83
2022/04/06 10:15:37;;;;;;;12.00;3.25;;;;;;;9.57;78.77;100105.25;5093192;28;20024;-83
2022/04/06 10:18:04;;;;;;;10.80;2.67;;;;;;;9.57;78.26;100113.19;5093248;28;20024;-84
2022/04/06 10:20:35;;;;;;;10.30;2.97;;;;;;;9.59;80.10;100107.75;5097681;28;20028;-83
2022/04/06 10:23:19;;;;;;;7.95;2.67;;;;;;;9.59;79.72;100113.94;5099761;28;20087;-83
2022/04/06 10:26:01;;;;;;;13.65;3.08;;;;;;;9.58;78.71;100098.16;5098490;28;20052;-83
2022/04/06 10:28:30;;;;;;;11.80;3.13;;;;;;;9.53;79.57;100100.34;5100276;28;20095;-84
2022/04/06 10:31:17;;;;;;;10.00;3.63;;;;;;;9.53;79.21;100105.66;5099523;28;20090;-84
2022/04/06 10:33:44;;;;;;;9.60;3.20;;;;;;;9.51;79.61;100096.97;5095351;28;20016;-84
2022/04/06 10:36:18;;;;;;;6.85;2.97;;;;;;;9.48;79.80;100099.91;5075939;28;20029;-83
2022/04/06 10:39:10;;;;;;;9.07;3.20;;;;;;;9.50;79.16;100101.44;5057779;28;20419;-83
2022/04/06 10:41:56;;;;;;;10.40;3.50;;;;;;;9.47;78.50;100101.69;5065789;28;20030;-84
2022/04/06 10:44:48;;;;;;;8.18;3.17;;;;;;;9.51;79.75;100089.88;5073438;28;20067;-83
2022/04/06 10:47:23;;;;;;;8.65;3.17;;;;;;;9.51;79.24;100091.66;5065178;28;20040;-83
2022/04/06 10:50:24;;;;;;;9.98;2.67;;;;;;;9.45;79.23;100085.91;5093030;28;20054;-83
2022/04/06 10:53:12;;;;;;;10.13;3.25;;;;;;;9.39;78.94;100091.75;5025068;28;20044;-83
2022/04/06 10:56:05;;;;;;;8.68;3.33;;;;;;;9.40;79.08;100080.16;5059515;28;20090;-82
2022/04/06 10:58:58;;;;;;;7.90;2.70;;;;;;;9.45;79.31;100082.44;5071388;28;20129;-83
2022/04/06 11:01:35;;;;;;;8.75;3.08;;;;;;;9.42;78.97;100085.34;5080853;28;20478;-83
2022/04/06 11:04:06;;;;;;;10.52;3.00;;;;;;;9.44;79.40;100092.19;5061253;28;20471;-83
2022/04/06 11:12:28;;;;;;;6.82;3.28;;;;;;;9.48;78.84;100068.09;5098061;28;20048;-83
2022/04/06 11:14:53;;;;;;;6.97;3.20;;;;;;;9.51;79.02;100070.47;5079839;28;20028;-84
2022/04/06 11:20:08;;;;;;;10.55;3.45;;;;;;;9.55;79.05;100061.28;5083329;28;20052;-84
2022/04/06 11:22:35;;;;;;;;;;;;;;;9.63;78.99;100057.00;5066379;28;20024;-84
2022/04/06 11:25:06;;;;;;;7.43;2.85;;;;;;;9.62;76.92;100062.44;5109293;28;19919;-84
2022/04/06 11:27:34;;;;;;;6.15;2.40;;;;;;;9.63;77.83;100058.84;5073655;28;20051;-83
2022/04/06 11:30:03;;;;;;;9.57;2.90;;;;;;;9.66;77.86;100052.41;5082419;28;20040;-83
2022/04/06 11:32:29;;;;;;;9.05;2.85;;;;;;;9.68;78.13;100053.97;5087145;28;20097;-83
2022/04/06 11:35:05;;;;;;;6.95;2.97;;;;;;;9.70;76.46;100044.06;5101533;28;20094;-84
2022/04/06 11:37:50;;;;;;;11.10;3.42;;;;;;;9.71;76.71;100050.19;5095431;28;20028;-86
2022/04/06 11:40:27;;;;;;;7.22;3.00;;;;;;;9.69;76.30;100041.53;5090180;28;20040;-87
2022/04/06 11:42:57;;;;;;;6.90;2.80;;;;;;;9.70;76.49;100030.81;5088149;28;20067;-87
2022/04/06 11:45:40;;;;;;;8.77;2.78;;;;;;;9.76;76.38;100040.06;5093175;28;20073;-87